createdAt,value
2022-12-29T00:01:42.157Z,24.0915
2022-12-29T00:16:44.239Z,23.0193
2022-12-29T00:31:46.253Z,23.1394
2022-12-29T00:46:48.373Z,24.8133
2022-12-29T01:01:50.532Z,24.7192
2022-12-29T01:16:52.523Z,20.9257
2022-12-29T01:31:54.530Z,24.5075
2022-12-29T01:46:56.519Z,23.7436
2022-12-29T02:01:58.568Z,26.0743
2022-12-29T02:17:00.583Z,26.442
2022-12-29T02:32:02.632Z,26.2216
2022-12-29T02:47:04.718Z,26.7769
2022-12-29T03:02:06.811Z,27.0728
2022-12-29T03:17:09.741Z,27.2647
2022-12-29T03:32:11.713Z,27.2678
2022-12-29T03:47:13.566Z,26.7187
2022-12-29T04:02:16.655Z,26.9527
2022-12-29T04:17:20.456Z,27.2356
2022-12-29T04:32:22.384Z,27.1805
2022-12-29T04:47:24.422Z,27.5476
2022-12-29T05:02:26.639Z,27.5575
2022-12-29T05:17:28.834Z,27.0375
2022-12-29T05:32:30.783Z,26.8747
2022-12-29T05:47:32.677Z,27.1743
2022-12-29T06:02:35.223Z,27.5445
2022-12-29T06:17:37.275Z,27.2616
2022-12-29T06:32:39.210Z,27.7395
2022-12-29T06:47:41.189Z,27.9766
2022-12-29T07:02:43.336Z,27.5247
2022-12-29T07:17:45.326Z,26.9112
2022-12-29T07:32:47.308Z,26.8332
2022-12-29T07:47:49.234Z,27.0245
2022-12-29T08:02:51.125Z,27.1378
2022-12-29T08:17:53.023Z,27.6095
2022-12-29T08:32:54.883Z,27.5154
2022-12-29T08:47:56.827Z,27.0963
2022-12-29T09:02:59.054Z,25.5685
2022-12-29T09:18:01.095Z,22.3959
2022-12-29T09:33:03.073Z,24.414
2022-12-29T09:48:09.623Z,27.0437
2022-12-29T10:03:11.853Z,26.6048
2022-12-29T10:18:13.889Z,25.8087
2022-12-29T10:33:15.906Z,23.946
2022-12-29T10:48:17.830Z,23.2929
2022-12-29T11:03:19.895Z,23.0453
2022-12-29T11:18:21.966Z,22.0932
2022-12-29T11:33:23.895Z,22.5414
2022-12-29T11:48:25.881Z,22.1384
2022-12-29T12:03:28.099Z,21.2185
2022-12-29T12:18:30.178Z,20.9647
2022-12-29T12:33:32.075Z,21.7385
2022-12-29T12:48:34.071Z,21.1108
2022-12-29T13:03:36.285Z,20.5778
2022-12-29T13:18:38.324Z,20.5908
2022-12-29T13:33:40.284Z,20.7697
2022-12-29T13:48:42.282Z,19.8956
2022-12-29T14:03:44.542Z,19.5087
2022-12-29T14:18:46.602Z,21.1368
2022-12-29T14:33:48.545Z,20.1587
2022-12-29T14:48:50.473Z,19.8789
2022-12-29T15:03:52.493Z,18.4947
2022-12-29T15:18:54.412Z,20.6137
2022-12-29T15:33:56.403Z,19.9278
2022-12-29T15:48:58.342Z,19.505
2022-12-29T16:04:00.372Z,19.544
2022-12-29T16:19:02.381Z,20.3209
2022-12-29T16:34:04.315Z,19.8721
2022-12-29T16:49:06.224Z,19.6542
2022-12-29T17:04:08.189Z,20.1352
2022-12-29T17:19:10.107Z,19.739
2022-12-29T17:34:12.104Z,21.1789
2022-12-29T17:49:14.054Z,21.1139
2022-12-29T18:04:15.948Z,21.3219
2022-12-29T18:19:17.907Z,20.1259
2022-12-29T18:34:19.895Z,21.3027
2022-12-29T18:49:22.240Z,20.1977
2022-12-29T19:04:24.167Z,20.0479
2022-12-29T19:19:26.313Z,20.7239
2022-12-29T19:34:28.257Z,20.7177
2022-12-29T19:49:30.237Z,19.9278
2022-12-29T20:04:32.232Z,19.1868
2022-12-29T20:19:34.207Z,21.0817
2022-12-29T20:34:36.153Z,20.3927
2022-12-29T20:49:38.132Z,19.8399
2022-12-29T21:05:13.507Z,20.675
2022-12-29T21:20:24.931Z,21.2829
2022-12-29T21:35:27.124Z,20.0968
2022-12-29T21:50:29.082Z,19.8789
2022-12-29T22:05:31.014Z,21.4519
2022-12-29T22:20:33.015Z,20.6979
2022-12-29T22:35:35.155Z,19.9798
2022-12-29T22:50:37.098Z,20.103
2022-12-29T23:05:39.102Z,21.0198
2022-12-29T23:20:41.007Z,20.1067
2022-12-29T23:35:43.013Z,19.934
2022-12-29T23:50:45.091Z,20.4218
